createdAt,value
2023-05-09T05:01:10.675Z,36.22
2023-05-09T05:02:10.569Z,36.27
2023-05-09T05:03:10.612Z,36.25
2023-05-09T05:04:10.666Z,36.32
2023-05-09T05:05:12.404Z,36.27
2023-05-09T05:06:10.717Z,36.28
2023-05-09T05:07:10.715Z,36.24
2023-05-09T05:08:10.679Z,36.25
2023-05-09T05:09:10.703Z,36.24
2023-05-09T05:10:10.685Z,36.25
2023-05-09T05:11:10.657Z,36.23
2023-05-09T05:12:10.684Z,36.20
2023-05-09T05:13:10.687Z,36.22
2023-05-09T05:14:10.620Z,36.20
2023-05-09T05:15:10.635Z,36.18
2023-05-09T05:16:10.672Z,36.18
2023-05-09T05:17:10.706Z,36.18
2023-05-09T05:18:10.710Z,36.15
2023-05-09T05:19:10.615Z,36.12
2023-05-09T05:20:10.645Z,36.12
2023-05-09T05:21:10.617Z,36.11
2023-05-09T05:22:10.667Z,36.07
2023-05-09T05:23:10.781Z,36.05
2023-05-09T05:24:10.749Z,36.10
2023-05-09T05:25:10.825Z,36.05
2023-05-09T05:26:10.891Z,36.05
2023-05-09T05:27:10.937Z,36.07
2023-05-09T05:28:11.004Z,36.08
2023-05-09T05:29:11.078Z,36.08
2023-05-09T05:30:11.069Z,36.11
2023-05-09T05:31:11.078Z,36.07
2023-05-09T05:32:11.036Z,36.07
2023-05-09T05:33:11.284Z,36.05
2023-05-09T05:34:11.093Z,36.07
2023-05-09T05:35:10.999Z,36.02
2023-05-09T05:36:11.042Z,36.06
2023-05-09T05:37:11.020Z,36.03
2023-05-09T05:38:11.003Z,36.08
2023-05-09T05:39:11.009Z,36.06
2023-05-09T05:40:11.135Z,36.09
2023-05-09T05:41:11.269Z,36.07
2023-05-09T05:42:11.192Z,36.10
2023-05-09T05:43:11.501Z,36.04
2023-05-09T05:44:11.206Z,36.11
2023-05-09T05:45:11.195Z,36.09
2023-05-09T05:46:11.252Z,36.09
2023-05-09T05:47:11.205Z,36.37
2023-05-09T05:48:11.185Z,36.38
2023-05-09T05:49:11.220Z,36.31
2023-05-09T05:50:11.267Z,36.67
2023-05-09T05:51:11.135Z,36.50
2023-05-09T05:52:11.133Z,36.38
2023-05-09T05:53:11.223Z,36.51
2023-05-09T05:54:11.215Z,36.73
2023-05-09T05:55:11.166Z,36.81
2023-05-09T05:56:11.276Z,36.86
2023-05-09T05:57:11.249Z,37.39
2023-05-09T05:58:11.353Z,37.19
2023-05-09T05:59:13.089Z,37.21
2023-05-09T06:00:11.451Z,37.08
2023-05-09T06:01:11.375Z,37.27
2023-05-09T06:02:11.452Z,37.24
2023-05-09T06:03:12.009Z,37.70
2023-05-09T06:04:11.555Z,37.50
2023-05-09T06:05:11.576Z,37.35
2023-05-09T06:06:11.489Z,37.56
2023-05-09T06:07:14.325Z,37.51
2023-05-09T06:08:11.488Z,37.40
2023-05-09T06:09:11.513Z,37.27
2023-05-09T06:10:11.516Z,37.37
2023-05-09T06:11:11.609Z,37.45
2023-05-09T06:12:11.436Z,37.47
2023-05-09T06:13:11.474Z,37.40
2023-05-09T06:14:11.456Z,37.47
2023-05-09T06:15:11.468Z,37.32
2023-05-09T06:16:18.454Z,37.52
2023-05-09T06:17:12.479Z,37.56
2023-05-09T06:18:11.545Z,37.52
2023-05-09T06:19:11.380Z,37.75
2023-05-09T06:20:11.443Z,37.69
2023-05-09T06:21:11.457Z,37.52
2023-05-09T06:22:11.400Z,37.59
2023-05-09T06:23:11.336Z,37.84
2023-05-09T06:24:19.908Z,37.69
2023-05-09T06:25:12.767Z,38.23
2023-05-09T06:26:11.383Z,37.92
2023-05-09T06:27:11.918Z,37.83
2023-05-09T06:28:11.501Z,37.84
2023-05-09T06:29:11.377Z,37.70
2023-05-09T06:30:24.777Z,37.73
2023-05-09T06:31:12.410Z,37.73
2023-05-09T06:32:11.351Z,37.78
2023-05-09T06:33:11.295Z,37.73
2023-05-09T06:34:11.529Z,37.73
2023-05-09T06:35:11.459Z,37.67
2023-05-09T06:36:11.719Z,37.66
2023-05-09T06:37:11.393Z,37.86
2023-05-09T06:38:11.299Z,37.80
2023-05-09T06:39:11.309Z,37.81
2023-05-09T06:40:11.276Z,37.76
2023-05-09T06:41:11.388Z,37.92
2023-05-09T06:42:11.280Z,38.24
2023-05-09T06:43:11.256Z,38.04
2023-05-09T06:44:11.699Z,38.06
2023-05-09T06:45:11.257Z,37.99
2023-05-09T06:46:11.274Z,38.12
2023-05-09T06:47:11.246Z,37.90
2023-05-09T06:48:11.193Z,37.98
2023-05-09T06:49:11.251Z,37.97
2023-05-09T06:50:11.265Z,37.97
2023-05-09T06:51:11.209Z,37.92
2023-05-09T06:52:11.196Z,37.84
2023-05-09T06:53:11.294Z,37.80
2023-05-09T06:54:11.436Z,37.76
2023-05-09T06:55:11.267Z,37.77
2023-05-09T06:56:11.332Z,37.77
2023-05-09T06:57:11.510Z,37.70
2023-05-09T06:58:11.870Z,37.82
2023-05-09T06:59:11.317Z,37.77
2023-05-09T07:00:11.343Z,37.93
2023-05-09T07:01:11.448Z,38.22
2023-05-09T07:02:11.322Z,38.09
2023-05-09T07:03:11.345Z,38.16
2023-05-09T07:04:11.310Z,38.20
2023-05-09T07:05:11.429Z,38.10
2023-05-09T07:06:11.831Z,38.37
2023-05-09T07:07:11.260Z,38.18
2023-05-09T07:08:11.868Z,38.35
2023-05-09T07:09:11.375Z,38.35
2023-05-09T07:10:12.574Z,38.26
2023-05-09T07:11:11.241Z,38.13
2023-05-09T07:12:11.268Z,38.14
2023-05-09T07:13:12.091Z,38.14
2023-05-09T07:14:11.354Z,38.28
2023-05-09T07:15:11.333Z,38.35
2023-05-09T07:16:11.336Z,38.46
2023-05-09T07:17:22.670Z,38.39
2023-05-09T07:18:12.253Z,38.49
2023-05-09T07:19:11.453Z,38.47
2023-05-09T07:20:11.261Z,38.41
2023-05-09T07:21:11.228Z,38.39
2023-05-09T07:22:11.193Z,38.45
2023-05-09T07:23:11.238Z,38.42
2023-05-09T07:24:11.134Z,38.50
2023-05-09T07:25:11.283Z,38.63
2023-05-09T07:26:11.217Z,38.45
2023-05-09T07:27:11.118Z,38.57
2023-05-09T07:28:11.094Z,38.40
2023-05-09T07:29:11.138Z,38.62
2023-05-09T07:30:11.129Z,38.68
2023-05-09T07:31:11.241Z,38.49
2023-05-09T07:32:11.220Z,38.27
2023-05-09T07:33:11.371Z,38.01
2023-05-09T07:34:11.276Z,38.15
2023-05-09T07:35:11.354Z,38.32
2023-05-09T07:36:11.556Z,38.46
2023-05-09T07:37:12.980Z,38.63
2023-05-09T07:38:11.529Z,38.44
2023-05-09T07:39:11.465Z,38.49
2023-05-09T07:40:11.473Z,38.77
2023-05-09T07:41:11.533Z,38.93
2023-05-09T07:42:11.411Z,39.08
2023-05-09T07:43:11.397Z,39.24
2023-05-09T07:44:11.376Z,39.26
2023-05-09T07:45:11.386Z,39.37
2023-05-09T07:46:11.435Z,39.42
2023-05-09T07:47:11.372Z,39.36
2023-05-09T07:48:11.365Z,39.40
2023-05-09T07:49:11.868Z,39.55
2023-05-09T07:50:11.882Z,39.39
2023-05-09T07:51:11.525Z,39.39
2023-05-09T07:52:11.303Z,39.46
2023-05-09T07:53:11.633Z,39.44
2023-05-09T07:54:11.551Z,39.38
2023-05-09T07:55:11.350Z,39.22
2023-05-09T07:56:11.334Z,39.25
2023-05-09T07:57:11.361Z,39.17
2023-05-09T07:58:11.307Z,39.27
2023-05-09T07:59:11.278Z,39.15
2023-05-09T08:00:11.300Z,38.96
2023-05-09T08:01:11.248Z,39.06
2023-05-09T08:02:11.297Z,39.17
2023-05-09T08:03:11.471Z,38.96
2023-05-09T08:04:11.316Z,38.84
2023-05-09T08:05:11.231Z,38.72
2023-05-09T08:06:11.277Z,38.56
2023-05-09T08:07:11.319Z,38.50
2023-05-09T08:08:11.349Z,38.47
2023-05-09T08:09:11.375Z,38.39
2023-05-09T08:10:11.457Z,38.44
2023-05-09T08:11:11.440Z,38.36
2023-05-09T08:12:11.518Z,38.38
2023-05-09T08:13:11.654Z,38.39
2023-05-09T08:14:11.855Z,38.47
2023-05-09T08:15:11.698Z,38.50
2023-05-09T08:16:11.739Z,38.50
2023-05-09T08:17:11.694Z,38.41
2023-05-09T08:18:11.704Z,38.36
2023-05-09T08:19:11.889Z,38.31
2023-05-09T08:20:11.758Z,38.20
2023-05-09T08:21:11.854Z,38.23
2023-05-09T08:22:11.826Z,38.22
2023-05-09T08:23:11.891Z,38.17
2023-05-09T08:24:11.885Z,38.09
2023-05-09T08:25:11.989Z,38.07
2023-05-09T08:26:11.983Z,38.00
2023-05-09T08:27:11.990Z,37.96
2023-05-09T08:28:12.130Z,37.89
2023-05-09T08:29:12.150Z,38.01
2023-05-09T08:30:12.109Z,38.38
2023-05-09T08:31:12.174Z,38.38
2023-05-09T08:32:12.122Z,38.67
2023-05-09T08:33:12.232Z,38.71
2023-05-09T08:34:12.880Z,39.12
2023-05-09T08:35:12.322Z,39.25
2023-05-09T08:36:12.185Z,39.53
2023-05-09T08:37:14.957Z,39.93
2023-05-09T08:38:12.128Z,39.89
2023-05-09T08:39:12.121Z,39.78
2023-05-09T08:40:12.198Z,39.83
2023-05-09T08:41:12.126Z,40.05
2023-05-09T08:42:13.920Z,40.22
2023-05-09T08:43:12.091Z,40.30
2023-05-09T08:44:12.157Z,40.44
2023-05-09T08:45:12.180Z,40.47
2023-05-09T08:46:12.102Z,40.39
2023-05-09T08:47:12.085Z,40.53
2023-05-09T08:48:12.226Z,40.44
2023-05-09T08:49:12.081Z,40.59
2023-05-09T08:50:12.249Z,40.65
2023-05-09T08:51:12.059Z,41.74
2023-05-09T08:52:12.083Z,41.32
2023-05-09T08:53:12.076Z,41.28
2023-05-09T08:54:11.995Z,41.26
2023-05-09T08:55:11.995Z,41.13
2023-05-09T08:56:12.110Z,41.30
2023-05-09T08:57:11.981Z,41.43
2023-05-09T08:58:12.015Z,41.32
2023-05-09T08:59:12.070Z,41.29
2023-05-09T09:00:12.013Z,41.42
2023-05-09T09:01:12.106Z,41.33
2023-05-09T09:02:12.020Z,41.61
2023-05-09T09:03:11.980Z,41.31
2023-05-09T09:04:11.934Z,41.10
2023-05-09T09:05:23.809Z,41.25
2023-05-09T09:06:12.943Z,41.09
2023-05-09T09:07:11.926Z,40.97
2023-05-09T09:08:11.975Z,41.05
2023-05-09T09:09:11.929Z,40.95
2023-05-09T09:10:11.929Z,40.87
2023-05-09T09:11:11.904Z,40.61
2023-05-09T09:12:11.869Z,40.43
2023-05-09T09:13:11.943Z,40.59
2023-05-09T09:14:11.867Z,40.86
2023-05-09T09:15:11.872Z,40.75
2023-05-09T09:16:11.854Z,40.59
2023-05-09T09:17:11.959Z,40.37
2023-05-09T09:18:11.852Z,40.31
2023-05-09T09:19:11.863Z,40.34
2023-05-09T09:20:11.893Z,40.21
2023-05-09T09:21:11.826Z,40.10
2023-05-09T09:22:11.831Z,40.05
2023-05-09T09:23:11.990Z,39.99
2023-05-09T09:24:11.875Z,39.90
2023-05-09T09:25:11.824Z,39.80
2023-05-09T09:26:11.984Z,39.41
2023-05-09T09:27:11.936Z,39.25
2023-05-09T09:28:11.910Z,38.90
2023-05-09T09:29:11.872Z,38.76
2023-05-09T09:30:11.921Z,39.05
2023-05-09T09:31:11.957Z,38.71
2023-05-09T09:32:11.990Z,38.52
2023-05-09T09:33:12.119Z,38.20
2023-05-09T09:34:11.966Z,37.90
2023-05-09T09:35:12.000Z,37.84
2023-05-09T09:36:12.097Z,37.65
2023-05-09T09:37:12.017Z,37.33
2023-05-09T09:38:12.046Z,37.29
2023-05-09T09:39:12.130Z,37.39
2023-05-09T09:40:12.310Z,37.41
2023-05-09T09:41:12.101Z,37.45
2023-05-09T09:42:12.125Z,37.36
2023-05-09T09:43:12.117Z,37.12
2023-05-09T09:44:12.189Z,37.05
2023-05-09T09:45:12.172Z,36.66
2023-05-09T09:46:12.326Z,36.86
2023-05-09T09:47:12.231Z,36.92
2023-05-09T09:48:12.334Z,36.88
2023-05-09T09:49:12.175Z,36.79
2023-05-09T09:50:12.293Z,36.67
2023-05-09T09:51:12.285Z,36.36
2023-05-09T09:52:12.177Z,36.08
2023-05-09T09:53:12.157Z,36.03
2023-05-09T09:54:12.331Z,35.73
2023-05-09T09:55:12.172Z,35.95
2023-05-09T09:56:12.126Z,35.91
2023-05-09T09:57:12.156Z,36.13
2023-05-09T09:58:12.147Z,36.13
2023-05-09T09:59:14.971Z,36.25
2023-05-09T10:00:12.293Z,36.39
2023-05-09T10:01:12.196Z,36.47
2023-05-09T10:02:12.127Z,36.71
2023-05-09T10:03:12.246Z,36.63
2023-05-09T10:04:12.194Z,36.85
2023-05-09T10:05:12.283Z,36.79
2023-05-09T10:06:12.184Z,36.58
2023-05-09T10:07:14.838Z,36.63
2023-05-09T10:08:12.093Z,36.76
2023-05-09T10:09:12.128Z,36.68
2023-05-09T10:10:12.150Z,36.64
2023-05-09T10:11:12.090Z,36.64
2023-05-09T10:12:12.107Z,36.44
2023-05-09T10:13:12.284Z,36.31
2023-05-09T10:14:12.906Z,36.34
2023-05-09T10:15:12.118Z,36.52
2023-05-09T10:16:12.175Z,36.52
2023-05-09T10:17:12.211Z,37.02
2023-05-09T10:18:12.566Z,37.18
2023-05-09T10:19:12.158Z,37.39
2023-05-09T10:20:12.293Z,37.38
2023-05-09T10:21:12.113Z,37.62
2023-05-09T10:22:12.020Z,37.66
2023-05-09T10:23:12.080Z,37.61
2023-05-09T10:24:12.040Z,37.42
2023-05-09T10:25:11.975Z,37.14
2023-05-09T10:26:12.007Z,36.72
2023-05-09T10:27:11.977Z,36.18
2023-05-09T10:28:11.965Z,36.40
2023-05-09T10:29:11.961Z,36.44
2023-05-09T10:30:11.972Z,36.45
2023-05-09T10:31:12.010Z,36.32
2023-05-09T10:32:11.953Z,36.09
2023-05-09T10:33:12.038Z,36.11
2023-05-09T10:34:12.000Z,36.05
2023-05-09T10:35:11.985Z,35.56
2023-05-09T10:36:11.902Z,35.56
2023-05-09T10:37:11.989Z,35.54
2023-05-09T10:38:12.003Z,35.67
2023-05-09T10:39:11.869Z,35.71
2023-05-09T10:40:11.887Z,35.67
2023-05-09T10:41:11.872Z,35.73
2023-05-09T10:42:11.963Z,35.63
2023-05-09T10:43:11.852Z,35.58
2023-05-09T10:44:11.873Z,35.67
2023-05-09T10:45:11.936Z,35.67
2023-05-09T10:46:11.861Z,35.73
2023-05-09T10:47:11.805Z,35.66
2023-05-09T10:48:11.822Z,35.13
2023-05-09T10:49:11.781Z,34.83
2023-05-09T10:50:11.821Z,34.74
2023-05-09T10:51:11.832Z,34.94
2023-05-09T10:52:11.799Z,34.92
2023-05-09T10:53:11.881Z,35.00
2023-05-09T10:54:11.788Z,34.99
2023-05-09T10:55:11.778Z,35.00
2023-05-09T10:56:11.789Z,34.91
2023-05-09T10:57:11.862Z,35.23
2023-05-09T10:58:11.754Z,35.19
2023-05-09T10:59:11.732Z,35.31
2023-05-09T11:00:11.750Z,35.17
2023-05-09T11:01:11.768Z,34.86
2023-05-09T11:02:11.754Z,34.98
2023-05-09T11:03:11.821Z,34.67
2023-05-09T11:04:12.015Z,34.71
2023-05-09T11:05:11.790Z,34.52
2023-05-09T11:06:11.688Z,34.39
2023-05-09T11:07:11.811Z,34.26
2023-05-09T11:08:11.730Z,34.01
2023-05-09T11:09:11.840Z,34.05
2023-05-09T11:10:11.822Z,34.43
2023-05-09T11:11:11.785Z,34.50
2023-05-09T11:12:11.849Z,34.51
2023-05-09T11:13:11.945Z,34.51
2023-05-09T11:14:11.956Z,34.65
2023-05-09T11:15:11.873Z,34.55
2023-05-09T11:16:12.014Z,34.56
2023-05-09T11:17:12.250Z,34.78
2023-05-09T11:18:11.951Z,34.75
2023-05-09T11:19:11.964Z,35.04
2023-05-09T11:20:12.007Z,35.17
2023-05-09T11:21:11.985Z,35.27
2023-05-09T11:22:11.974Z,35.29
2023-05-09T11:23:12.013Z,35.32
2023-05-09T11:24:11.989Z,35.35
2023-05-09T11:25:12.231Z,35.51
2023-05-09T11:26:12.111Z,35.51
2023-05-09T11:27:12.050Z,35.55
2023-05-09T11:28:12.111Z,35.54
2023-05-09T11:29:12.138Z,35.73
2023-05-09T11:30:12.108Z,35.76
2023-05-09T11:31:12.124Z,35.76
2023-05-09T11:32:12.198Z,35.75
2023-05-09T11:33:12.199Z,35.80
2023-05-09T11:34:12.170Z,35.79
2023-05-09T11:35:12.296Z,35.85
2023-05-09T11:36:12.289Z,35.84
2023-05-09T11:37:12.212Z,35.86
2023-05-09T11:38:14.034Z,35.84
2023-05-09T11:39:12.228Z,35.81
2023-05-09T11:40:12.308Z,35.79
2023-05-09T11:41:12.288Z,35.79
2023-05-09T11:42:12.228Z,35.74
2023-05-09T11:43:12.282Z,35.69
2023-05-09T11:44:12.210Z,35.11
2023-05-09T11:45:12.317Z,35.35
2023-05-09T11:46:12.238Z,35.53
2023-05-09T11:47:12.191Z,35.55
2023-05-09T11:48:12.210Z,35.54
2023-05-09T11:49:15.587Z,35.50
2023-05-09T11:50:12.158Z,35.58
2023-05-09T11:51:12.125Z,35.57
2023-05-09T11:52:12.173Z,35.61
2023-05-09T11:53:12.132Z,35.61
2023-05-09T11:54:12.099Z,35.56
2023-05-09T11:55:12.897Z,35.52
2023-05-09T11:56:12.111Z,35.19
2023-05-09T11:57:12.243Z,35.48
2023-05-09T11:58:12.134Z,35.48
2023-05-09T11:59:12.053Z,35.48
2023-05-09T12:00:12.089Z,35.47
2023-05-09T12:01:12.451Z,35.42
2023-05-09T12:02:12.149Z,35.46
2023-05-09T12:03:12.145Z,35.43
2023-05-09T12:04:12.242Z,35.50
2023-05-09T12:05:12.191Z,35.50
2023-05-09T12:06:12.016Z,35.55
2023-05-09T12:07:12.003Z,35.52
2023-05-09T12:08:11.996Z,35.38
2023-05-09T12:09:12.064Z,35.17
2023-05-09T12:10:12.004Z,35.17
2023-05-09T12:11:12.126Z,34.41
2023-05-09T12:12:12.080Z,34.53
2023-05-09T12:13:12.189Z,34.62
2023-05-09T12:14:12.168Z,34.11
2023-05-09T12:15:13.004Z,34.40
2023-05-09T12:16:12.235Z,33.92
2023-05-09T12:17:12.257Z,33.93
2023-05-09T12:18:12.281Z,33.85
2023-05-09T12:19:12.236Z,33.66
2023-05-09T12:20:12.295Z,32.07
2023-05-09T12:21:12.327Z,32.57
2023-05-09T12:22:12.298Z,31.79
2023-05-09T12:23:12.396Z,30.78
2023-05-09T12:24:12.409Z,30.90
2023-05-09T12:25:12.562Z,31.08
2023-05-09T12:26:12.411Z,30.47
2023-05-09T12:27:12.388Z,30.60
2023-05-09T12:28:12.349Z,30.83
2023-05-09T12:29:12.503Z,30.90
2023-05-09T12:30:12.400Z,30.65
2023-05-09T12:31:12.491Z,30.80
2023-05-09T12:32:12.446Z,30.73
2023-05-09T12:33:12.415Z,30.53
2023-05-09T12:34:12.467Z,30.33
2023-05-09T12:35:12.598Z,30.28
2023-05-09T12:36:12.440Z,30.31
2023-05-09T12:37:12.445Z,30.17
2023-05-09T12:38:12.482Z,30.18
2023-05-09T12:39:12.481Z,30.15
2023-05-09T12:40:12.776Z,30.04
2023-05-09T12:41:30.846Z,29.99
2023-05-09T12:42:13.482Z,29.94
2023-05-09T12:43:12.492Z,29.88
2023-05-09T12:44:12.542Z,29.79
2023-05-09T12:45:12.627Z,29.73
2023-05-09T12:46:12.513Z,29.69
2023-05-09T12:47:12.485Z,29.83
2023-05-09T12:48:12.453Z,29.70
2023-05-09T12:49:12.433Z,29.73
2023-05-09T12:50:12.444Z,29.65
2023-05-09T12:51:12.408Z,29.54
2023-05-09T12:52:12.424Z,29.64
2023-05-09T12:53:12.406Z,29.62
2023-05-09T12:54:12.426Z,29.53
2023-05-09T12:55:12.844Z,29.57
2023-05-09T12:56:12.567Z,29.53
2023-05-09T12:57:12.577Z,29.41
2023-05-09T12:58:12.603Z,29.37
2023-05-09T12:59:12.653Z,29.46
2023-05-09T13:00:12.800Z,29.29
2023-05-09T13:01:12.938Z,29.32
2023-05-09T13:02:12.877Z,29.30
2023-05-09T13:03:12.851Z,29.26
2023-05-09T13:04:13.080Z,29.12
2023-05-09T13:05:13.220Z,29.13
2023-05-09T13:06:12.917Z,28.94
2023-05-09T13:07:13.158Z,29.30
2023-05-09T13:08:13.019Z,28.98
2023-05-09T13:09:13.153Z,28.95
2023-05-09T13:10:13.111Z,28.86
2023-05-09T13:11:16.680Z,28.72
2023-05-09T13:12:13.172Z,28.58
2023-05-09T13:13:13.253Z,28.53
2023-05-09T13:14:13.160Z,28.43
2023-05-09T13:15:13.394Z,28.48
2023-05-09T13:16:15.761Z,28.44
2023-05-09T13:17:13.371Z,28.46
2023-05-09T13:18:13.165Z,28.40
2023-05-09T13:19:13.112Z,28.39
2023-05-09T13:20:13.514Z,28.36
2023-05-09T13:21:13.094Z,28.32
2023-05-09T13:22:13.218Z,28.12
2023-05-09T13:23:13.077Z,28.16
2023-05-09T13:24:13.069Z,28.20
2023-05-09T13:25:13.085Z,28.16
2023-05-09T13:26:13.139Z,28.12
2023-05-09T13:27:13.038Z,28.07
2023-05-09T13:28:13.025Z,28.01
2023-05-09T13:29:13.082Z,28.06
2023-05-09T13:30:13.272Z,27.98
2023-05-09T13:31:13.106Z,27.77
2023-05-09T13:32:13.039Z,27.85
2023-05-09T13:33:25.389Z,27.82
2023-05-09T13:34:13.998Z,27.80
2023-05-09T13:35:13.004Z,27.82
2023-05-09T13:36:13.044Z,27.74
2023-05-09T13:37:12.989Z,27.72
2023-05-09T13:38:12.934Z,27.63
2023-05-09T13:39:12.966Z,27.56
2023-05-09T13:40:13.193Z,27.60
2023-05-09T13:41:12.999Z,27.56
2023-05-09T13:42:12.899Z,27.53
2023-05-09T13:43:12.977Z,27.44
2023-05-09T13:44:13.041Z,27.46
2023-05-09T13:45:13.253Z,27.32
2023-05-09T13:46:13.153Z,27.37
2023-05-09T13:47:13.215Z,27.35
2023-05-09T13:48:13.289Z,27.35
2023-05-09T13:49:13.465Z,27.33
2023-05-09T13:50:13.428Z,27.34
2023-05-09T13:51:13.432Z,27.36
2023-05-09T13:52:13.510Z,27.35
2023-05-09T13:53:13.561Z,27.35
2023-05-09T13:54:13.572Z,27.42
2023-05-09T13:55:13.609Z,27.37
2023-05-09T13:56:13.747Z,27.43
2023-05-09T13:57:13.710Z,27.42
2023-05-09T13:58:13.808Z,27.45
2023-05-09T13:59:13.769Z,27.43
2023-05-09T14:00:15.700Z,27.63
2023-05-09T14:01:14.834Z,27.83
2023-05-09T14:02:14.016Z,28.14
2023-05-09T14:03:14.099Z,28.13
2023-05-09T14:04:14.170Z,28.15
2023-05-09T14:05:14.209Z,28.10
2023-05-09T14:06:15.441Z,28.04
2023-05-09T14:07:14.215Z,28.18
2023-05-09T14:08:14.313Z,28.30
2023-05-09T14:09:14.330Z,28.34
2023-05-09T14:10:14.386Z,28.38
2023-05-09T14:11:14.429Z,28.56
2023-05-09T14:12:15.531Z,28.59
2023-05-09T14:13:14.649Z,28.59
2023-05-09T14:14:14.581Z,28.65
2023-05-09T14:15:14.681Z,28.67
2023-05-09T14:16:14.715Z,28.61
2023-05-09T14:17:14.726Z,28.65
2023-05-09T14:18:17.760Z,28.69
2023-05-09T14:19:14.787Z,28.67
2023-05-09T14:20:14.880Z,28.74
2023-05-09T14:21:14.777Z,28.77
2023-05-09T14:22:14.770Z,28.74
2023-05-09T14:23:14.733Z,28.74
2023-05-09T14:24:16.303Z,28.80
2023-05-09T14:25:14.728Z,28.80
2023-05-09T14:26:14.687Z,28.80
2023-05-09T14:27:14.722Z,28.81
2023-05-09T14:28:14.831Z,28.86
2023-05-09T14:29:14.706Z,28.87
2023-05-09T14:30:14.839Z,28.90
2023-05-09T14:31:14.724Z,28.92
2023-05-09T14:32:14.699Z,28.90
2023-05-09T14:33:14.678Z,28.96
2023-05-09T14:34:14.661Z,28.92
2023-05-09T14:35:14.711Z,28.99
2023-05-09T14:36:14.682Z,29.02
2023-05-09T14:37:14.730Z,29.06
2023-05-09T14:38:14.627Z,29.09
2023-05-09T14:39:14.693Z,29.15
2023-05-09T14:40:15.258Z,29.21
2023-05-09T14:41:14.872Z,29.26
2023-05-09T14:42:14.734Z,29.35
2023-05-09T14:43:14.764Z,29.41
2023-05-09T14:44:14.896Z,29.39
2023-05-09T14:45:14.733Z,29.49
2023-05-09T14:46:14.732Z,29.53
2023-05-09T14:47:14.802Z,29.66
2023-05-09T14:48:16.065Z,29.64
2023-05-09T14:49:14.859Z,29.65
2023-05-09T14:50:14.977Z,29.65
2023-05-09T14:51:14.842Z,29.76
2023-05-09T14:52:14.871Z,29.76
2023-05-09T14:53:14.946Z,29.80
2023-05-09T14:54:14.853Z,29.80
2023-05-09T14:55:14.872Z,29.90
2023-05-09T14:56:15.053Z,29.92
2023-05-09T14:57:14.941Z,29.96
2023-05-09T14:58:14.959Z,29.91
2023-05-09T14:59:14.969Z,29.95
2023-05-09T15:00:21.325Z,29.95
2023-05-09T15:01:15.977Z,30.00
2023-05-09T15:02:15.015Z,30.00
2023-05-09T15:03:14.959Z,30.03
2023-05-09T15:04:15.021Z,30.02
2023-05-09T15:05:14.926Z,30.06
2023-05-09T15:06:15.549Z,30.09
2023-05-09T15:07:14.937Z,30.15
2023-05-09T15:08:14.923Z,30.10
2023-05-09T15:09:14.994Z,30.19
2023-05-09T15:10:15.236Z,30.15
2023-05-09T15:11:14.895Z,30.20
2023-05-09T15:12:14.878Z,30.18
2023-05-09T15:13:15.008Z,30.15
2023-05-09T15:14:14.945Z,30.25
2023-05-09T15:15:14.900Z,30.26
2023-05-09T15:16:14.929Z,30.30
2023-05-09T15:17:14.877Z,30.26
2023-05-09T15:18:14.867Z,30.30
2023-05-09T15:19:14.867Z,30.33
2023-05-09T15:20:15.162Z,30.33
2023-05-09T15:21:14.856Z,30.33
2023-05-09T15:22:14.840Z,30.39
2023-05-09T15:23:14.893Z,30.42
2023-05-09T15:24:14.824Z,30.35
2023-05-09T15:25:14.926Z,30.40
2023-05-09T15:26:14.791Z,30.42
2023-05-09T15:27:14.861Z,30.39
2023-05-09T15:28:14.791Z,30.43
2023-05-09T15:29:14.832Z,30.45
2023-05-09T15:30:14.951Z,30.52
2023-05-09T15:31:14.797Z,30.52
2023-05-09T15:32:14.800Z,30.54
2023-05-09T15:33:14.818Z,30.57
2023-05-09T15:34:14.804Z,30.52
2023-05-09T15:35:14.828Z,30.57
2023-05-09T15:36:14.849Z,30.57
2023-05-09T15:37:14.816Z,30.60
2023-05-09T15:38:14.855Z,30.66
2023-05-09T15:39:14.833Z,30.61
2023-05-09T15:40:15.123Z,30.67
2023-05-09T15:41:14.955Z,30.67
2023-05-09T15:42:14.857Z,30.69
2023-05-09T15:43:14.883Z,30.73
2023-05-09T15:44:14.910Z,30.73
2023-05-09T15:45:14.883Z,30.74
2023-05-09T15:46:14.978Z,30.77
2023-05-09T15:47:14.874Z,30.76
2023-05-09T15:48:14.912Z,30.71
2023-05-09T15:49:14.923Z,30.74
2023-05-09T15:50:15.157Z,30.77
2023-05-09T15:51:15.032Z,30.78
2023-05-09T15:52:14.951Z,30.78
2023-05-09T15:53:15.001Z,30.75
2023-05-09T15:54:15.020Z,30.84
2023-05-09T15:55:15.098Z,30.77
2023-05-09T15:56:15.060Z,30.78
2023-05-09T15:57:15.135Z,30.81
2023-05-09T15:58:15.117Z,30.84
2023-05-09T15:59:15.098Z,30.87
2023-05-09T16:00:15.269Z,30.90
2023-05-09T16:01:15.140Z,30.81
2023-05-09T16:02:15.171Z,30.83
2023-05-09T16:03:15.267Z,30.88
2023-05-09T16:04:15.201Z,30.91
2023-05-09T16:05:15.189Z,30.90
2023-05-09T16:06:15.181Z,30.87
2023-05-09T16:07:15.223Z,30.88
2023-05-09T16:08:15.294Z,30.94
2023-05-09T16:09:15.274Z,30.90
2023-05-09T16:10:15.413Z,30.92
2023-05-09T16:11:15.278Z,30.93
2023-05-09T16:12:15.259Z,30.96
2023-05-09T16:13:15.442Z,30.96
2023-05-09T16:14:15.420Z,30.94
2023-05-09T16:15:15.354Z,30.95
2023-05-09T16:16:15.394Z,30.90
2023-05-09T16:17:15.369Z,31.00
2023-05-09T16:18:15.438Z,30.95
2023-05-09T16:19:15.442Z,30.95
2023-05-09T16:20:15.638Z,30.98
2023-05-09T16:21:15.533Z,31.00
2023-05-09T16:22:15.528Z,31.01
2023-05-09T16:23:15.543Z,31.02
2023-05-09T16:24:15.529Z,31.00
2023-05-09T16:25:15.561Z,31.02
2023-05-09T16:26:15.641Z,31.04
2023-05-09T16:27:15.641Z,31.01
2023-05-09T16:28:15.634Z,31.04
2023-05-09T16:29:15.762Z,31.08
2023-05-09T16:30:16.011Z,31.01
2023-05-09T16:31:15.737Z,31.01
2023-05-09T16:32:15.750Z,31.05
2023-05-09T16:33:15.815Z,31.07
2023-05-09T16:34:15.790Z,31.11
2023-05-09T16:35:15.817Z,31.04
2023-05-09T16:36:15.891Z,31.05
2023-05-09T16:37:15.839Z,31.11
2023-05-09T16:38:15.898Z,31.11
2023-05-09T16:39:15.878Z,31.12
2023-05-09T16:40:16.142Z,31.09
2023-05-09T16:41:15.996Z,31.13
2023-05-09T16:42:15.994Z,31.14
2023-05-09T16:43:16.010Z,31.11
2023-05-09T16:44:16.057Z,31.12
2023-05-09T16:45:16.129Z,31.09
2023-05-09T16:46:16.170Z,31.15
2023-05-09T16:47:16.069Z,31.13
2023-05-09T16:48:16.168Z,31.15
2023-05-09T16:49:16.129Z,31.16
2023-05-09T16:50:16.468Z,31.18
2023-05-09T16:51:16.172Z,31.20
2023-05-09T16:52:16.227Z,31.20
2023-05-09T16:53:16.259Z,31.15
2023-05-09T16:54:16.236Z,31.20
2023-05-09T16:55:16.360Z,31.19
2023-05-09T16:56:16.364Z,31.18
2023-05-09T16:57:16.341Z,31.23
2023-05-09T16:58:16.405Z,31.22
2023-05-09T16:59:16.389Z,31.25
2023-05-09T17:00:24.052Z,31.27
